sensor_id;sensor_type;location;lat;lon;timestamp;P1;P2;P0
47705;PMS5003;33471;52.104;1.318;2023-04-24T00:01:04;24;22;
47705;PMS5003;33471;52.104;1.318;2023-04-24T00:03:31;24;24;
47705;PMS5003;33471;52.104;1.318;2023-04-24T00:05:58;18;17;
47705;PMS5003;33471;52.104;1.318;2023-04-24T00:08:25;20;20;
47705;PMS5003;33471;52.104;1.318;2023-04-24T00:10:52;25;24;
47705;PMS5003;33471;52.104;1.318;2023-04-24T00:13:20;21;21;
47705;PMS5003;33471;52.104;1.318;2023-04-24T00:15:48;18;18;
47705;PMS5003;33471;52.104;1.318;2023-04-24T00:18:15;21;20;
47705;PMS5003;33471;52.104;1.318;2023-04-24T00:20:42;19;19;
47705;PMS5003;33471;52.104;1.318;2023-04-24T00:23:09;18;18;
47705;PMS5003;33471;52.104;1.318;2023-04-24T00:25:36;18;16;
47705;PMS5003;33471;52.104;1.318;2023-04-24T00:28:04;26;26;
47705;PMS5003;33471;52.104;1.318;2023-04-24T00:30:31;20;17;
47705;PMS5003;33471;52.104;1.318;2023-04-24T00:32:58;25;23;
47705;PMS5003;33471;52.104;1.318;2023-04-24T00:35:25;17;15;
47705;PMS5003;33471;52.104;1.318;2023-04-24T00:37:52;19;18;
47705;PMS5003;33471;52.104;1.318;2023-04-24T00:40:19;13;13;
47705;PMS5003;33471;52.104;1.318;2023-04-24T00:42:46;26;24;
47705;PMS5003;33471;52.104;1.318;2023-04-24T00:45:14;25;24;
47705;PMS5003;33471;52.104;1.318;2023-04-24T00:47:42;26;24;
47705;PMS5003;33471;52.104;1.318;2023-04-24T00:50:10;30;25;
47705;PMS5003;33471;52.104;1.318;2023-04-24T00:52:36;29;29;
47705;PMS5003;33471;52.104;1.318;2023-04-24T00:55:04;26;24;
47705;PMS5003;33471;52.104;1.318;2023-04-24T00:57:32;24;24;
47705;PMS5003;33471;52.104;1.318;2023-04-24T00:59:59;30;27;
47705;PMS5003;33471;52.104;1.318;2023-04-24T01:02:26;23;23;
47705;PMS5003;33471;52.104;1.318;2023-04-24T01:04:53;26;25;
47705;PMS5003;33471;52.104;1.318;2023-04-24T01:07:20;29;27;
47705;PMS5003;33471;52.104;1.318;2023-04-24T01:09:48;23;20;
47705;PMS5003;33471;52.104;1.318;2023-04-24T01:12:16;29;26;
47705;PMS5003;33471;52.104;1.318;2023-04-24T01:14:44;25;25;
47705;PMS5003;33471;52.104;1.318;2023-04-24T01:17:11;26;25;
47705;PMS5003;33471;52.104;1.318;2023-04-24T01:19:38;29;26;
47705;PMS5003;33471;52.104;1.318;2023-04-24T01:22:10;29;29;
47705;PMS5003;33471;52.104;1.318;2023-04-24T01:24:37;27;25;
47705;PMS5003;33471;52.104;1.318;2023-04-24T01:27:05;32;26;
47705;PMS5003;33471;52.104;1.318;2023-04-24T01:29:33;27;24;
47705;PMS5003;33471;52.104;1.318;2023-04-24T01:32:01;32;29;
47705;PMS5003;33471;52.104;1.318;2023-04-24T01:34:29;31;30;
47705;PMS5003;33471;52.104;1.318;2023-04-24T01:36:56;31;28;
47705;PMS5003;33471;52.104;1.318;2023-04-24T01:39:23;33;29;
47705;PMS5003;33471;52.104;1.318;2023-04-24T01:41:51;30;27;
47705;PMS5003;33471;52.104;1.318;2023-04-24T01:44:19;28;25;
47705;PMS5003;33471;52.104;1.318;2023-04-24T01:46:46;25;23;
47705;PMS5003;33471;52.104;1.318;2023-04-24T01:49:14;32;31;
47705;PMS5003;33471;52.104;1.318;2023-04-24T01:51:41;30;29;
47705;PMS5003;33471;52.104;1.318;2023-04-24T01:54:08;29;27;
47705;PMS5003;33471;52.104;1.318;2023-04-24T01:56:35;26;26;
47705;PMS5003;33471;52.104;1.318;2023-04-24T01:59:06;34;30;
47705;PMS5003;33471;52.104;1.318;2023-04-24T02:01:36;25;22;
47705;PMS5003;33471;52.104;1.318;2023-04-24T02:04:04;31;25;
47705;PMS5003;33471;52.104;1.318;2023-04-24T02:06:32;28;26;
47705;PMS5003;33471;52.104;1.318;2023-04-24T02:08:59;24;24;
47705;PMS5003;33471;52.104;1.318;2023-04-24T02:11:28;28;27;
47705;PMS5003;33471;52.104;1.318;2023-04-24T02:13:55;35;27;
47705;PMS5003;33471;52.104;1.318;2023-04-24T02:16:23;25;25;
47705;PMS5003;33471;52.104;1.318;2023-04-24T02:18:50;30;26;
47705;PMS5003;33471;52.104;1.318;2023-04-24T02:21:17;22;20;
47705;PMS5003;33471;52.104;1.318;2023-04-24T02:23:44;24;23;
47705;PMS5003;33471;52.104;1.318;2023-04-24T02:26:11;25;25;
47705;PMS5003;33471;52.104;1.318;2023-04-24T02:28:38;21;21;
47705;PMS5003;33471;52.104;1.318;2023-04-24T02:31:05;25;21;
47705;PMS5003;33471;52.104;1.318;2023-04-24T02:33:33;21;21;
47705;PMS5003;33471;52.104;1.318;2023-04-24T02:36:00;25;23;
47705;PMS5003;33471;52.104;1.318;2023-04-24T02:38:28;25;25;
47705;PMS5003;33471;52.104;1.318;2023-04-24T02:40:55;17;16;
47705;PMS5003;33471;52.104;1.318;2023-04-24T02:43:23;17;17;
47705;PMS5003;33471;52.104;1.318;2023-04-24T02:45:50;16;15;
47705;PMS5003;33471;52.104;1.318;2023-04-24T02:48:17;17;15;
47705;PMS5003;33471;52.104;1.318;2023-04-24T02:50:45;17;15;
47705;PMS5003;33471;52.104;1.318;2023-04-24T02:53:12;15;14;
47705;PMS5003;33471;52.104;1.318;2023-04-24T02:55:39;13;12;
47705;PMS5003;33471;52.104;1.318;2023-04-24T02:58:07;11;11;
47705;PMS5003;33471;52.104;1.318;2023-04-24T03:00:35;16;13;
47705;PMS5003;33471;52.104;1.318;2023-04-24T03:03:02;10;10;
47705;PMS5003;33471;52.104;1.318;2023-04-24T03:05:30;10;10;
47705;PMS5003;33471;52.104;1.318;2023-04-24T03:07:57;9;8;
47705;PMS5003;33471;52.104;1.318;2023-04-24T03:10:24;9;9;
47705;PMS5003;33471;52.104;1.318;2023-04-24T03:12:51;14;10;
47705;PMS5003;33471;52.104;1.318;2023-04-24T03:15:19;11;11;
47705;PMS5003;33471;52.104;1.318;2023-04-24T03:17:46;17;17;
47705;PMS5003;33471;52.104;1.318;2023-04-24T03:20:14;18;15;
47705;PMS5003;33471;52.104;1.318;2023-04-24T03:22:40;8;7;
47705;PMS5003;33471;52.104;1.318;2023-04-24T03:25:08;9;9;
47705;PMS5003;33471;52.104;1.318;2023-04-24T03:27:35;14;13;
47705;PMS5003;33471;52.104;1.318;2023-04-24T03:30:03;18;16;
47705;PMS5003;33471;52.104;1.318;2023-04-24T03:32:30;17;17;
47705;PMS5003;33471;52.104;1.318;2023-04-24T03:34:57;20;18;
47705;PMS5003;33471;52.104;1.318;2023-04-24T03:37:24;22;22;
47705;PMS5003;33471;52.104;1.318;2023-04-24T03:39:52;16;14;
47705;PMS5003;33471;52.104;1.318;2023-04-24T03:42:19;17;13;
47705;PMS5003;33471;52.104;1.318;2023-04-24T03:44:46;16;15;
47705;PMS5003;33471;52.104;1.318;2023-04-24T03:47:13;8;6;
47705;PMS5003;33471;52.104;1.318;2023-04-24T03:49:41;12;10;
47705;PMS5003;33471;52.104;1.318;2023-04-24T03:52:08;7;7;
47705;PMS5003;33471;52.104;1.318;2023-04-24T03:54:35;9;8;
47705;PMS5003;33471;52.104;1.318;2023-04-24T03:57:03;8;7;
47705;PMS5003;33471;52.104;1.318;2023-04-24T03:59:30;9;8;
47705;PMS5003;33471;52.104;1.318;2023-04-24T04:01:57;9;9;
47705;PMS5003;33471;52.104;1.318;2023-04-24T04:04:24;15;15;
47705;PMS5003;33471;52.104;1.318;2023-04-24T04:06:51;5;5;
47705;PMS5003;33471;52.104;1.318;2023-04-24T04:09:18;8;8;
47705;PMS5003;33471;52.104;1.318;2023-04-24T04:11:45;9;9;
47705;PMS5003;33471;52.104;1.318;2023-04-24T04:14:12;10;8;
47705;PMS5003;33471;52.104;1.318;2023-04-24T04:16:40;17;17;
47705;PMS5003;33471;52.104;1.318;2023-04-24T04:19:07;8;8;
47705;PMS5003;33471;52.104;1.318;2023-04-24T04:21:34;18;18;
47705;PMS5003;33471;52.104;1.318;2023-04-24T04:24:01;22;19;
47705;PMS5003;33471;52.104;1.318;2023-04-24T04:26:28;18;14;
47705;PMS5003;33471;52.104;1.318;2023-04-24T04:28:56;26;22;
47705;PMS5003;33471;52.104;1.318;2023-04-24T04:31:22;19;15;
47705;PMS5003;33471;52.104;1.318;2023-04-24T04:33:49;18;18;
47705;PMS5003;33471;52.104;1.318;2023-04-24T04:36:16;15;14;
47705;PMS5003;33471;52.104;1.318;2023-04-24T04:38:44;18;17;
47705;PMS5003;33471;52.104;1.318;2023-04-24T04:41:11;22;21;
47705;PMS5003;33471;52.104;1.318;2023-04-24T04:43:38;22;21;
47705;PMS5003;33471;52.104;1.318;2023-04-24T04:46:06;20;20;
47705;PMS5003;33471;52.104;1.318;2023-04-24T04:48:33;22;21;
47705;PMS5003;33471;52.104;1.318;2023-04-24T04:51:01;17;16;
47705;PMS5003;33471;52.104;1.318;2023-04-24T04:53:28;18;15;
47705;PMS5003;33471;52.104;1.318;2023-04-24T04:55:55;14;14;
47705;PMS5003;33471;52.104;1.318;2023-04-24T04:58:22;17;15;
47705;PMS5003;33471;52.104;1.318;2023-04-24T05:00:49;21;21;
47705;PMS5003;33471;52.104;1.318;2023-04-24T05:03:17;18;17;
47705;PMS5003;33471;52.104;1.318;2023-04-24T05:05:44;20;20;
47705;PMS5003;33471;52.104;1.318;2023-04-24T05:08:11;19;16;
47705;PMS5003;33471;52.104;1.318;2023-04-24T05:10:39;13;13;
47705;PMS5003;33471;52.104;1.318;2023-04-24T05:13:06;11;11;
47705;PMS5003;33471;52.104;1.318;2023-04-24T05:15:34;12;12;
47705;PMS5003;33471;52.104;1.318;2023-04-24T05:18:01;17;17;
47705;PMS5003;33471;52.104;1.318;2023-04-24T05:20:28;8;8;
47705;PMS5003;33471;52.104;1.318;2023-04-24T05:22:56;9;9;
47705;PMS5003;33471;52.104;1.318;2023-04-24T05:25:23;10;10;
47705;PMS5003;33471;52.104;1.318;2023-04-24T05:27:50;21;20;
47705;PMS5003;33471;52.104;1.318;2023-04-24T05:30:17;13;13;
47705;PMS5003;33471;52.104;1.318;2023-04-24T05:32:44;11;11;
47705;PMS5003;33471;52.104;1.318;2023-04-24T05:35:11;11;9;
47705;PMS5003;33471;52.104;1.318;2023-04-24T05:37:38;16;15;
47705;PMS5003;33471;52.104;1.318;2023-04-24T05:40:06;17;15;
47705;PMS5003;33471;52.104;1.318;2023-04-24T05:42:34;14;14;
47705;PMS5003;33471;52.104;1.318;2023-04-24T05:45:01;8;8;
47705;PMS5003;33471;52.104;1.318;2023-04-24T05:47:29;13;11;
47705;PMS5003;33471;52.104;1.318;2023-04-24T05:49:56;14;14;
47705;PMS5003;33471;52.104;1.318;2023-04-24T05:52:24;12;9;
47705;PMS5003;33471;52.104;1.318;2023-04-24T05:54:51;11;9;
47705;PMS5003;33471;52.104;1.318;2023-04-24T05:57:18;17;14;
47705;PMS5003;33471;52.104;1.318;2023-04-24T05:59:45;11;10;
47705;PMS5003;33471;52.104;1.318;2023-04-24T06:02:13;6;6;
47705;PMS5003;33471;52.104;1.318;2023-04-24T06:04:40;13;9;
47705;PMS5003;33471;52.104;1.318;2023-04-24T06:07:08;10;9;
47705;PMS5003;33471;52.104;1.318;2023-04-24T06:09:35;7;7;
47705;PMS5003;33471;52.104;1.318;2023-04-24T06:12:03;6;5;
47705;PMS5003;33471;52.104;1.318;2023-04-24T06:14:31;5;5;
47705;PMS5003;33471;52.104;1.318;2023-04-24T06:16:58;4;4;
47705;PMS5003;33471;52.104;1.318;2023-04-24T06:19:24;10;10;
47705;PMS5003;33471;52.104;1.318;2023-04-24T06:21:51;5;4;
47705;PMS5003;33471;52.104;1.318;2023-04-24T06:24:18;5;5;
47705;PMS5003;33471;52.104;1.318;2023-04-24T06:26:46;4;4;
47705;PMS5003;33471;52.104;1.318;2023-04-24T06:29:13;6;6;
47705;PMS5003;33471;52.104;1.318;2023-04-24T06:31:40;5;5;
47705;PMS5003;33471;52.104;1.318;2023-04-24T06:34:07;8;7;
47705;PMS5003;33471;52.104;1.318;2023-04-24T06:36:34;9;9;
47705;PMS5003;33471;52.104;1.318;2023-04-24T06:39:02;8;7;
47705;PMS5003;33471;52.104;1.318;2023-04-24T06:41:30;4;4;
47705;PMS5003;33471;52.104;1.318;2023-04-24T06:43:58;8;8;
47705;PMS5003;33471;52.104;1.318;2023-04-24T06:46:25;5;5;
47705;PMS5003;33471;52.104;1.318;2023-04-24T06:48:53;6;5;
47705;PMS5003;33471;52.104;1.318;2023-04-24T06:51:22;10;10;
47705;PMS5003;33471;52.104;1.318;2023-04-24T06:53:50;5;5;
47705;PMS5003;33471;52.104;1.318;2023-04-24T06:56:18;5;5;
47705;PMS5003;33471;52.104;1.318;2023-04-24T06:58:45;6;6;
47705;PMS5003;33471;52.104;1.318;2023-04-24T07:01:12;6;6;
47705;PMS5003;33471;52.104;1.318;2023-04-24T07:03:40;7;7;
47705;PMS5003;33471;52.104;1.318;2023-04-24T07:06:07;11;11;
47705;PMS5003;33471;52.104;1.318;2023-04-24T07:08:36;7;7;
47705;PMS5003;33471;52.104;1.318;2023-04-24T07:11:04;5;5;
47705;PMS5003;33471;52.104;1.318;2023-04-24T07:13:31;9;5;
47705;PMS5003;33471;52.104;1.318;2023-04-24T07:15:58;10;6;
47705;PMS5003;33471;52.104;1.318;2023-04-24T07:18:25;5;5;
47705;PMS5003;33471;52.104;1.318;2023-04-24T07:20:52;8;8;
47705;PMS5003;33471;52.104;1.318;2023-04-24T07:23:19;9;9;
47705;PMS5003;33471;52.104;1.318;2023-04-24T07:25:47;5;5;
47705;PMS5003;33471;52.104;1.318;2023-04-24T07:28:14;5;5;
47705;PMS5003;33471;52.104;1.318;2023-04-24T07:30:41;6;6;
47705;PMS5003;33471;52.104;1.318;2023-04-24T07:33:07;6;6;
47705;PMS5003;33471;52.104;1.318;2023-04-24T07:35:35;6;6;
47705;PMS5003;33471;52.104;1.318;2023-04-24T07:38:02;9;8;
47705;PMS5003;33471;52.104;1.318;2023-04-24T07:40:29;8;6;
47705;PMS5003;33471;52.104;1.318;2023-04-24T07:42:56;8;7;
47705;PMS5003;33471;52.104;1.318;2023-04-24T07:45:23;4;4;
47705;PMS5003;33471;52.104;1.318;2023-04-24T07:47:50;6;6;
47705;PMS5003;33471;52.104;1.318;2023-04-24T07:50:18;8;6;
47705;PMS5003;33471;52.104;1.318;2023-04-24T07:52:45;6;6;
47705;PMS5003;33471;52.104;1.318;2023-04-24T07:55:12;7;6;
47705;PMS5003;33471;52.104;1.318;2023-04-24T07:57:39;6;6;
47705;PMS5003;33471;52.104;1.318;2023-04-24T08:00:08;9;8;
47705;PMS5003;33471;52.104;1.318;2023-04-24T08:02:36;7;7;
47705;PMS5003;33471;52.104;1.318;2023-04-24T08:05:04;14;11;
47705;PMS5003;33471;52.104;1.318;2023-04-24T08:07:31;8;6;
47705;PMS5003;33471;52.104;1.318;2023-04-24T08:09:59;6;5;
47705;PMS5003;33471;52.104;1.318;2023-04-24T08:12:27;6;6;
47705;PMS5003;33471;52.104;1.318;2023-04-24T08:14:55;4;4;
47705;PMS5003;33471;52.104;1.318;2023-04-24T08:17:21;7;7;
47705;PMS5003;33471;52.104;1.318;2023-04-24T08:19:48;6;6;
47705;PMS5003;33471;52.104;1.318;2023-04-24T08:22:16;8;7;
47705;PMS5003;33471;52.104;1.318;2023-04-24T08:24:43;8;8;
47705;PMS5003;33471;52.104;1.318;2023-04-24T08:27:10;6;5;
47705;PMS5003;33471;52.104;1.318;2023-04-24T08:29:38;11;11;
47705;PMS5003;33471;52.104;1.318;2023-04-24T08:32:05;11;10;
47705;PMS5003;33471;52.104;1.318;2023-04-24T08:34:32;6;6;
47705;PMS5003;33471;52.104;1.318;2023-04-24T08:37:00;7;7;
47705;PMS5003;33471;52.104;1.318;2023-04-24T08:39:27;6;6;
47705;PMS5003;33471;52.104;1.318;2023-04-24T08:41:55;6;6;
47705;PMS5003;33471;52.104;1.318;2023-04-24T08:44:22;7;7;
47705;PMS5003;33471;52.104;1.318;2023-04-24T08:46:49;6;6;
47705;PMS5003;33471;52.104;1.318;2023-04-24T08:49:17;7;7;
47705;PMS5003;33471;52.104;1.318;2023-04-24T08:51:45;6;6;
47705;PMS5003;33471;52.104;1.318;2023-04-24T08:54:12;8;7;
47705;PMS5003;33471;52.104;1.318;2023-04-24T08:56:40;9;7;
47705;PMS5003;33471;52.104;1.318;2023-04-24T08:59:09;7;7;
47705;PMS5003;33471;52.104;1.318;2023-04-24T09:01:37;9;9;
47705;PMS5003;33471;52.104;1.318;2023-04-24T09:04:07;6;6;
47705;PMS5003;33471;52.104;1.318;2023-04-24T09:06:36;5;5;
47705;PMS5003;33471;52.104;1.318;2023-04-24T09:09:03;6;6;
47705;PMS5003;33471;52.104;1.318;2023-04-24T09:11:31;5;5;
47705;PMS5003;33471;52.104;1.318;2023-04-24T09:13:58;7;5;
47705;PMS5003;33471;52.104;1.318;2023-04-24T09:16:27;5;5;
47705;PMS5003;33471;52.104;1.318;2023-04-24T09:18:54;6;6;
47705;PMS5003;33471;52.104;1.318;2023-04-24T09:21:21;7;7;
47705;PMS5003;33471;52.104;1.318;2023-04-24T09:23:57;5;4;
47705;PMS5003;33471;52.104;1.318;2023-04-24T09:26:25;5;5;
47705;PMS5003;33471;52.104;1.318;2023-04-24T09:28:55;5;5;
47705;PMS5003;33471;52.104;1.318;2023-04-24T09:31:22;4;4;
47705;PMS5003;33471;52.104;1.318;2023-04-24T09:33:53;4;4;
47705;PMS5003;33471;52.104;1.318;2023-04-24T09:36:26;10;10;
47705;PMS5003;33471;52.104;1.318;2023-04-24T09:38:57;5;5;
47705;PMS5003;33471;52.104;1.318;2023-04-24T09:41:25;8;4;
47705;PMS5003;33471;52.104;1.318;2023-04-24T09:43:53;6;6;
47705;PMS5003;33471;52.104;1.318;2023-04-24T09:46:21;4;4;
47705;PMS5003;33471;52.104;1.318;2023-04-24T09:48:48;5;5;
47705;PMS5003;33471;52.104;1.318;2023-04-24T09:51:14;5;5;
47705;PMS5003;33471;52.104;1.318;2023-04-24T09:53:45;6;2;
47705;PMS5003;33471;52.104;1.318;2023-04-24T09:56:13;4;4;
47705;PMS5003;33471;52.104;1.318;2023-04-24T09:58:40;6;5;
47705;PMS5003;33471;52.104;1.318;2023-04-24T10:01:07;3;3;
47705;PMS5003;33471;52.104;1.318;2023-04-24T10:03:36;6;6;
47705;PMS5003;33471;52.104;1.318;2023-04-24T10:06:04;4;4;
47705;PMS5003;33471;52.104;1.318;2023-04-24T10:08:32;3;3;
47705;PMS5003;33471;52.104;1.318;2023-04-24T10:11:00;4;4;
47705;PMS5003;33471;52.104;1.318;2023-04-24T10:13:28;2;2;
47705;PMS5003;33471;52.104;1.318;2023-04-24T10:15:56;3;3;
47705;PMS5003;33471;52.104;1.318;2023-04-24T10:18:28;3;3;
47705;PMS5003;33471;52.104;1.318;2023-04-24T10:20:56;3;3;
47705;PMS5003;33471;52.104;1.318;2023-04-24T10:23:26;6;4;
47705;PMS5003;33471;52.104;1.318;2023-04-24T10:25:55;5;5;
47705;PMS5003;33471;52.104;1.318;2023-04-24T10:28:23;4;4;
47705;PMS5003;33471;52.104;1.318;2023-04-24T10:30:52;4;4;
47705;PMS5003;33471;52.104;1.318;2023-04-24T10:33:21;5;3;
47705;PMS5003;33471;52.104;1.318;2023-04-24T10:35:50;4;4;
47705;PMS5003;33471;52.104;1.318;2023-04-24T10:38:22;10;10;
47705;PMS5003;33471;52.104;1.318;2023-04-24T10:40:51;4;3;
47705;PMS5003;33471;52.104;1.318;2023-04-24T10:43:32;5;2;
47705;PMS5003;33471;52.104;1.318;2023-04-24T10:46:00;4;4;
47705;PMS5003;33471;52.104;1.318;2023-04-24T10:48:29;3;3;
47705;PMS5003;33471;52.104;1.318;2023-04-24T10:50:59;5;5;
47705;PMS5003;33471;52.104;1.318;2023-04-24T10:53:28;5;5;
47705;PMS5003;33471;52.104;1.318;2023-04-24T10:55:58;4;4;
47705;PMS5003;33471;52.104;1.318;2023-04-24T10:58:39;2;2;
47705;PMS5003;33471;52.104;1.318;2023-04-24T11:01:08;6;6;
47705;PMS5003;33471;52.104;1.318;2023-04-24T11:03:35;7;7;
47705;PMS5003;33471;52.104;1.318;2023-04-24T11:06:03;4;4;
47705;PMS5003;33471;52.104;1.318;2023-04-24T11:08:36;8;8;
47705;PMS5003;33471;52.104;1.318;2023-04-24T11:11:08;9;7;
47705;PMS5003;33471;52.104;1.318;2023-04-24T11:14:09;6;6;
47705;PMS5003;33471;52.104;1.318;2023-04-24T11:16:39;6;6;
47705;PMS5003;33471;52.104;1.318;2023-04-24T11:19:10;6;6;
47705;PMS5003;33471;52.104;1.318;2023-04-24T11:21:46;6;6;
47705;PMS5003;33471;52.104;1.318;2023-04-24T11:24:25;5;5;
47705;PMS5003;33471;52.104;1.318;2023-04-24T11:26:54;3;3;
47705;PMS5003;33471;52.104;1.318;2023-04-24T11:29:22;7;7;
47705;PMS5003;33471;52.104;1.318;2023-04-24T11:32:14;6;6;
47705;PMS5003;33471;52.104;1.318;2023-04-24T11:34:45;7;6;
47705;PMS5003;33471;52.104;1.318;2023-04-24T11:37:13;6;6;
47705;PMS5003;33471;52.104;1.318;2023-04-24T11:39:40;5;5;
47705;PMS5003;33471;52.104;1.318;2023-04-24T11:42:07;4;4;
47705;PMS5003;33471;52.104;1.318;2023-04-24T11:44:35;12;11;
47705;PMS5003;33471;52.104;1.318;2023-04-24T11:47:03;10;10;
47705;PMS5003;33471;52.104;1.318;2023-04-24T11:49:30;4;4;
47705;PMS5003;33471;52.104;1.318;2023-04-24T11:51:57;5;5;
47705;PMS5003;33471;52.104;1.318;2023-04-24T11:54:24;6;6;
47705;PMS5003;33471;52.104;1.318;2023-04-24T11:56:51;6;5;
47705;PMS5003;33471;52.104;1.318;2023-04-24T11:59:18;6;6;
47705;PMS5003;33471;52.104;1.318;2023-04-24T12:01:45;7;7;
47705;PMS5003;33471;52.104;1.318;2023-04-24T12:04:13;7;6;
47705;PMS5003;33471;52.104;1.318;2023-04-24T12:06:58;5;5;
47705;PMS5003;33471;52.104;1.318;2023-04-24T12:09:25;8;8;
47705;PMS5003;33471;52.104;1.318;2023-04-24T12:11:52;10;10;
47705;PMS5003;33471;52.104;1.318;2023-04-24T12:14:20;4;3;
47705;PMS5003;33471;52.104;1.318;2023-04-24T12:16:47;10;10;
47705;PMS5003;33471;52.104;1.318;2023-04-24T12:19:17;5;5;
47705;PMS5003;33471;52.104;1.318;2023-04-24T12:21:58;6;6;
47705;PMS5003;33471;52.104;1.318;2023-04-24T12:24:26;5;4;
47705;PMS5003;33471;52.104;1.318;2023-04-24T12:26:53;6;6;
47705;PMS5003;33471;52.104;1.318;2023-04-24T12:29:20;6;6;
47705;PMS5003;33471;52.104;1.318;2023-04-24T12:31:48;5;3;
47705;PMS5003;33471;52.104;1.318;2023-04-24T12:34:17;6;6;
47705;PMS5003;33471;52.104;1.318;2023-04-24T12:36:45;5;5;
47705;PMS5003;33471;52.104;1.318;2023-04-24T12:39:14;7;7;
47705;PMS5003;33471;52.104;1.318;2023-04-24T12:41:50;6;6;
47705;PMS5003;33471;52.104;1.318;2023-04-24T12:44:20;4;4;
47705;PMS5003;33471;52.104;1.318;2023-04-24T12:46:55;9;9;
47705;PMS5003;33471;52.104;1.318;2023-04-24T12:49:22;5;5;
47705;PMS5003;33471;52.104;1.318;2023-04-24T12:51:49;10;5;
47705;PMS5003;33471;52.104;1.318;2023-04-24T12:54:16;6;4;
47705;PMS5003;33471;52.104;1.318;2023-04-24T12:56:43;4;4;
47705;PMS5003;33471;52.104;1.318;2023-04-24T12:59:10;8;8;
47705;PMS5003;33471;52.104;1.318;2023-04-24T13:01:37;7;6;
47705;PMS5003;33471;52.104;1.318;2023-04-24T13:04:04;7;6;
47705;PMS5003;33471;52.104;1.318;2023-04-24T13:06:32;8;7;
47705;PMS5003;33471;52.104;1.318;2023-04-24T13:08:59;6;6;
47705;PMS5003;33471;52.104;1.318;2023-04-24T13:11:26;3;3;
47705;PMS5003;33471;52.104;1.318;2023-04-24T13:13:54;9;8;
47705;PMS5003;33471;52.104;1.318;2023-04-24T13:16:21;7;6;
47705;PMS5003;33471;52.104;1.318;2023-04-24T13:18:48;5;5;
47705;PMS5003;33471;52.104;1.318;2023-04-24T13:21:15;5;5;
47705;PMS5003;33471;52.104;1.318;2023-04-24T13:23:42;6;6;
47705;PMS5003;33471;52.104;1.318;2023-04-24T13:26:09;8;8;
47705;PMS5003;33471;52.104;1.318;2023-04-24T13:28:37;4;4;
47705;PMS5003;33471;52.104;1.318;2023-04-24T13:31:04;7;5;
47705;PMS5003;33471;52.104;1.318;2023-04-24T13:33:31;7;7;
47705;PMS5003;33471;52.104;1.318;2023-04-24T13:35:58;7;7;
47705;PMS5003;33471;52.104;1.318;2023-04-24T13:38:26;14;9;
47705;PMS5003;33471;52.104;1.318;2023-04-24T13:40:53;7;7;
47705;PMS5003;33471;52.104;1.318;2023-04-24T13:43:20;6;5;
47705;PMS5003;33471;52.104;1.318;2023-04-24T13:45:47;5;5;
47705;PMS5003;33471;52.104;1.318;2023-04-24T13:48:14;8;8;
47705;PMS5003;33471;52.104;1.318;2023-04-24T13:50:42;10;8;
47705;PMS5003;33471;52.104;1.318;2023-04-24T13:53:09;9;8;
47705;PMS5003;33471;52.104;1.318;2023-04-24T13:55:37;9;8;
47705;PMS5003;33471;52.104;1.318;2023-04-24T13:58:04;9;9;
47705;PMS5003;33471;52.104;1.318;2023-04-24T14:00:30;8;8;
47705;PMS5003;33471;52.104;1.318;2023-04-24T14:02:57;9;8;
47705;PMS5003;33471;52.104;1.318;2023-04-24T14:05:24;8;6;
47705;PMS5003;33471;52.104;1.318;2023-04-24T14:07:52;7;7;
47705;PMS5003;33471;52.104;1.318;2023-04-24T14:10:19;9;6;
47705;PMS5003;33471;52.104;1.318;2023-04-24T14:12:46;6;6;
47705;PMS5003;33471;52.104;1.318;2023-04-24T14:15:12;10;10;
47705;PMS5003;33471;52.104;1.318;2023-04-24T14:17:40;8;8;
47705;PMS5003;33471;52.104;1.318;2023-04-24T14:20:08;7;5;
47705;PMS5003;33471;52.104;1.318;2023-04-24T14:22:36;9;8;
47705;PMS5003;33471;52.104;1.318;2023-04-24T14:25:04;6;5;
47705;PMS5003;33471;52.104;1.318;2023-04-24T14:27:32;6;6;
47705;PMS5003;33471;52.104;1.318;2023-04-24T14:29:59;6;6;
47705;PMS5003;33471;52.104;1.318;2023-04-24T14:32:26;7;7;
47705;PMS5003;33471;52.104;1.318;2023-04-24T14:34:54;7;7;
47705;PMS5003;33471;52.104;1.318;2023-04-24T14:37:21;12;11;
47705;PMS5003;33471;52.104;1.318;2023-04-24T14:39:47;6;5;
47705;PMS5003;33471;52.104;1.318;2023-04-24T14:42:14;12;11;
47705;PMS5003;33471;52.104;1.318;2023-04-24T14:44:41;8;8;
47705;PMS5003;33471;52.104;1.318;2023-04-24T14:47:08;8;7;
47705;PMS5003;33471;52.104;1.318;2023-04-24T14:49:36;13;13;
47705;PMS5003;33471;52.104;1.318;2023-04-24T14:52:04;8;5;
47705;PMS5003;33471;52.104;1.318;2023-04-24T14:54:31;6;6;
47705;PMS5003;33471;52.104;1.318;2023-04-24T14:56:58;6;5;
47705;PMS5003;33471;52.104;1.318;2023-04-24T14:59:25;6;6;
47705;PMS5003;33471;52.104;1.318;2023-04-24T15:01:54;7;7;
47705;PMS5003;33471;52.104;1.318;2023-04-24T15:04:21;8;8;
47705;PMS5003;33471;52.104;1.318;2023-04-24T15:06:48;11;8;
47705;PMS5003;33471;52.104;1.318;2023-04-24T15:09:14;5;5;
47705;PMS5003;33471;52.104;1.318;2023-04-24T15:11:41;9;9;
47705;PMS5003;33471;52.104;1.318;2023-04-24T15:14:08;6;6;
47705;PMS5003;33471;52.104;1.318;2023-04-24T15:16:36;13;13;
47705;PMS5003;33471;52.104;1.318;2023-04-24T15:19:04;7;7;
47705;PMS5003;33471;52.104;1.318;2023-04-24T15:21:31;8;6;
47705;PMS5003;33471;52.104;1.318;2023-04-24T15:23:58;7;6;
47705;PMS5003;33471;52.104;1.318;2023-04-24T15:26:24;12;12;
47705;PMS5003;33471;52.104;1.318;2023-04-24T15:28:52;11;10;
47705;PMS5003;33471;52.104;1.318;2023-04-24T15:31:19;6;6;
47705;PMS5003;33471;52.104;1.318;2023-04-24T15:33:46;9;9;
47705;PMS5003;33471;52.104;1.318;2023-04-24T15:36:13;7;7;
47705;PMS5003;33471;52.104;1.318;2023-04-24T15:38:42;8;8;
47705;PMS5003;33471;52.104;1.318;2023-04-24T15:41:10;8;7;
47705;PMS5003;33471;52.104;1.318;2023-04-24T15:43:38;7;6;
47705;PMS5003;33471;52.104;1.318;2023-04-24T15:46:05;7;6;
47705;PMS5003;33471;52.104;1.318;2023-04-24T15:48:33;7;6;
47705;PMS5003;33471;52.104;1.318;2023-04-24T15:51:00;9;9;
47705;PMS5003;33471;52.104;1.318;2023-04-24T15:53:27;6;6;
47705;PMS5003;33471;52.104;1.318;2023-04-24T15:55:54;8;8;
47705;PMS5003;33471;52.104;1.318;2023-04-24T15:58:21;6;6;
47705;PMS5003;33471;52.104;1.318;2023-04-24T16:00:49;5;5;
47705;PMS5003;33471;52.104;1.318;2023-04-24T16:03:16;7;7;
47705;PMS5003;33471;52.104;1.318;2023-04-24T16:05:43;8;8;
47705;PMS5003;33471;52.104;1.318;2023-04-24T16:08:11;4;3;
47705;PMS5003;33471;52.104;1.318;2023-04-24T16:10:38;6;5;
47705;PMS5003;33471;52.104;1.318;2023-04-24T16:13:06;7;6;
47705;PMS5003;33471;52.104;1.318;2023-04-24T16:15:33;7;7;
47705;PMS5003;33471;52.104;1.318;2023-04-24T16:18:00;12;11;
47705;PMS5003;33471;52.104;1.318;2023-04-24T16:20:27;7;7;
47705;PMS5003;33471;52.104;1.318;2023-04-24T16:22:54;7;6;
47705;PMS5003;33471;52.104;1.318;2023-04-24T16:25:22;6;6;
47705;PMS5003;33471;52.104;1.318;2023-04-24T16:27:49;6;5;
47705;PMS5003;33471;52.104;1.318;2023-04-24T16:30:16;8;8;
47705;PMS5003;33471;52.104;1.318;2023-04-24T16:32:43;6;6;
47705;PMS5003;33471;52.104;1.318;2023-04-24T16:35:11;12;12;
47705;PMS5003;33471;52.104;1.318;2023-04-24T16:37:38;7;7;
47705;PMS5003;33471;52.104;1.318;2023-04-24T16:40:06;5;5;
47705;PMS5003;33471;52.104;1.318;2023-04-24T16:42:34;11;11;